NO-0013 weather

Agdenes Airfield Breivika
Agdenes, Sør-Trøndelag, Norway

Public forecast

Using degrees Celsius for public forecast. Weather courtesy of forecast.io.

METAR (pilot weather report)

Closest report is Ørland Airport, 5.3 nm (9.9 km) NW. Retrieved 2019/09/23 14:20 UTC (17 minutes ago):

ENOL 231420Z 13010KT CAVOK 15/08 Q1015 NOSIG

TAF (pilot weather forecast)

Closest forecast is Ørland Airport, 5.3 nm (9.9 km) NW. Retrieved 2019/09/23 12:57 UTC (2 hours ago):

TAF ENOL 231100Z 2312/2412 13012KT CAVOK